Time;durP1;ratioP1;P1;durP2;ratioP2;P2;SDS_P1;SDS_P2;PMS_P1;PMS_P2;Temp;Humidity;BMP_temperature;BMP_pressure;BME280_temperature;BME280_humidity;BME280_pressure;Samples;Min_cycle;Max_cycle;Signal;HPM_P1;HPM_P2
2022/09/10 00:00:45;;;;;;;;;;;19.30;84.70;;;;;;6313369;22;20337;-95
2022/09/10 00:03:11;;;;;;;;;;;19.20;84.70;;;;;;6341686;22;19962;-95
2022/09/10 00:05:41;;;;;;;;;;;19.30;84.90;;;;;;6341474;22;20260;-96
2022/09/10 00:08:07;;;;;;;;;;;19.20;84.70;;;;;;6314722;22;19938;-96
2022/09/10 00:10:37;;;;;;;;;;;19.20;84.40;;;;;;6313097;22;19939;-95
2022/09/10 00:13:02;;;;;;;;;;;19.20;84.40;;;;;;6341155;22;19958;-96
2022/09/10 00:15:28;;;;;;;;;;;19.10;84.30;;;;;;6340217;22;19968;-96
2022/09/10 00:17:53;;;;;;;;;;;19.10;84.30;;;;;;6340756;22;19965;-96
2022/09/10 00:20:19;;;;;;;;;;;19.10;84.20;;;;;;6340312;22;19937;-96
2022/09/10 00:22:44;;;;;;;;;;;19.00;84.30;;;;;;6340669;22;19934;-96
2022/09/10 00:25:10;;;;;;;;;;;18.90;84.50;;;;;;6340224;22;19938;-95
2022/09/10 00:27:36;;;;;;;;;;;18.80;84.60;;;;;;6312905;22;19947;-96
2022/09/10 00:30:02;;;;;;;;;;;18.80;84.60;;;;;;6340579;22;19992;-96
2022/09/10 00:32:28;;;;;;;;;;;18.80;84.60;;;;;;6340278;22;19935;-96
2022/09/10 00:34:54;;;;;;;;;;;18.80;85.00;;;;;;6341112;22;19933;-96
2022/09/10 00:37:19;;;;;;;;;;;18.70;85.20;;;;;;6312733;22;19958;-96
2022/09/10 00:39:46;;;;;;;;;;;18.60;85.40;;;;;;6313387;22;19983;-96
2022/09/10 00:42:11;;;;;;;;;;;18.50;86.00;;;;;;6340541;22;20345;-96
2022/09/10 00:44:39;;;;;;;;;;;18.40;86.60;;;;;;6340545;22;19936;-96
2022/09/10 00:47:06;;;;;;;;;;;18.30;86.80;;;;;;6340715;22;19953;-96
2022/09/10 00:49:35;;;;;;;;;;;18.30;86.80;;;;;;6340385;22;19938;-96
2022/09/10 00:52:01;;;;;;;;;;;18.40;86.70;;;;;;6340496;22;20005;-96
2022/09/10 00:54:27;;;;;;;;;;;18.50;86.50;;;;;;6340438;22;19950;-95
2022/09/10 00:56:55;;;;;;;;;;;18.60;86.30;;;;;;6313742;22;19934;-96
2022/09/10 00:59:24;;;;;;;;;;;18.60;86.00;;;;;;6340222;22;19991;-95
2022/09/10 01:01:50;;;;;;;;;;;18.70;85.70;;;;;;6340589;22;19935;-96
2022/09/10 01:04:16;;;;;;;;;;;18.80;85.80;;;;;;6340019;22;19983;-96
2022/09/10 01:06:44;;;;;;;;;;;18.80;85.70;;;;;;6340330;22;20262;-96
2022/09/10 01:09:10;;;;;;;;;;;18.70;85.60;;;;;;6312550;22;19942;-96
2022/09/10 01:11:36;;;;;;;;;;;18.50;86.30;;;;;;6340228;22;19937;-96
2022/09/10 01:14:21;;;;;;;;;;;18.40;86.60;;;;;;6339976;22;19957;-96
2022/09/10 01:17:08;;;;;;;;;;;18.40;86.70;;;;;;6313363;22;19945;-96
2022/09/10 01:20:13;;;;;;;;;;;18.40;87.00;;;;;;6312231;22;19976;-96
2022/09/10 01:22:41;;;;;;;;;;;18.30;87.30;;;;;;6184233;23;19941;-96
2022/09/10 01:25:30;;;;;;;;;;;18.40;88.10;;;;;;6159254;23;19995;-96
2022/09/10 01:27:58;;;;;;;;;;;18.50;88.00;;;;;;6283306;22;19942;-96
2022/09/10 01:30:29;;;;;;;;;;;18.60;87.90;;;;;;6312315;22;19934;-95
2022/09/10 01:32:58;;;;;;;;;;;18.70;87.60;;;;;;6339779;22;20020;-96
2022/09/10 01:35:35;;;;;;;;;;;18.70;87.10;;;;;;6340956;22;19943;-96
2022/09/10 01:38:03;;;;;;;;;;;18.80;86.90;;;;;;6312924;22;19963;-96
2022/09/10 01:40:31;;;;;;;;;;;18.80;86.90;;;;;;6340125;22;20053;-96
2022/09/10 01:43:00;;;;;;;;;;;18.90;86.90;;;;;;6340529;22;19987;-96
2022/09/10 01:45:27;;;;;;;;;;;18.90;86.50;;;;;;6341204;22;20354;-96
2022/09/10 01:48:08;;;;;;;;;;;18.90;86.40;;;;;;6340856;22;20017;-96
2022/09/10 01:50:52;;;;;;;;;;;19.00;86.40;;;;;;6341401;22;20014;-95
2022/09/10 01:53:29;;;;;;;;;;;19.00;86.00;;;;;;6313049;22;19964;-96
2022/09/10 01:55:58;;;;;;;;;;;19.10;86.00;;;;;;6340832;22;20000;-96
2022/09/10 01:58:29;;;;;;;;;;;19.10;86.30;;;;;;6340704;22;19972;-96
2022/09/10 02:01:03;;;;;;;;;;;19.10;86.50;;;;;;6340810;22;19946;-96
2022/09/10 02:03:29;;;;;;;;;;;19.00;87.10;;;;;;6340521;22;19944;-96
2022/09/10 02:05:55;;;;;;;;;;;19.00;86.70;;;;;;6340890;22;19965;-96
2022/09/10 02:08:27;;;;;;;;;;;19.00;86.80;;;;;;6340346;22;20304;-96
2022/09/10 02:10:54;;;;;;;;;;;19.00;87.50;;;;;;6341214;22;19943;-96
2022/09/10 02:13:21;;;;;;;;;;;19.00;87.60;;;;;;6340084;22;20028;-96
2022/09/10 02:15:48;;;;;;;;;;;19.00;87.30;;;;;;6340238;22;20013;-96
2022/09/10 02:18:14;;;;;;;;;;;19.00;87.20;;;;;;6311812;22;19941;-96
2022/09/10 02:20:40;;;;;;;;;;;19.10;87.20;;;;;;6340807;22;19931;-96
2022/09/10 02:23:06;;;;;;;;;;;19.10;87.50;;;;;;6341481;22;19988;-96
2022/09/10 02:25:33;;;;;;;;;;;19.00;87.70;;;;;;6341659;22;19931;-96
2022/09/10 02:27:59;;;;;;;;;;;19.00;87.70;;;;;;6341196;22;19981;-96
2022/09/10 02:30:25;;;;;;;;;;;18.90;88.50;;;;;;6341609;22;20010;-96
2022/09/10 02:32:50;;;;;;;;;;;18.80;88.30;;;;;;6341166;22;19999;-96
2022/09/10 02:35:16;;;;;;;;;;;18.90;88.30;;;;;;6314381;22;19939;-96
2022/09/10 02:37:42;;;;;;;;;;;18.90;88.40;;;;;;6341781;22;20300;-96
2022/09/10 02:40:08;;;;;;;;;;;18.90;88.30;;;;;;6340997;22;19977;-95
2022/09/10 02:42:34;;;;;;;;;;;18.70;88.60;;;;;;6341792;22;19973;-96
2022/09/10 02:44:59;;;;;;;;;;;18.30;89.20;;;;;;6313296;22;19936;-95
2022/09/10 02:47:25;;;;;;;;;;;18.10;89.80;;;;;;6341770;22;19994;-95
2022/09/10 02:49:50;;;;;;;;;;;18.10;90.20;;;;;;6340911;22;19930;-96
2022/09/10 02:52:16;;;;;;;;;;;18.20;90.30;;;;;;6341674;22;19934;-96
2022/09/10 02:54:41;;;;;;;;;;;18.20;90.30;;;;;;6340952;22;20264;-96
2022/09/10 02:57:07;;;;;;;;;;;18.30;90.30;;;;;;6341199;22;19939;-96
2022/09/10 02:59:32;;;;;;;;;;;18.30;90.50;;;;;;6340969;22;20267;-96
2022/09/10 03:01:58;;;;;;;;;;;18.30;90.60;;;;;;6315854;22;20248;-96
2022/09/10 03:04:24;;;;;;;;;;;18.30;90.60;;;;;;6314625;22;19941;-96
2022/09/10 03:06:52;;;;;;;;;;;18.30;90.70;;;;;;6342407;22;19937;-95
2022/09/10 03:09:17;;;;;;;;;;;18.40;90.30;;;;;;6315149;22;20336;-96
2022/09/10 03:11:44;;;;;;;;;;;18.40;90.10;;;;;;6342056;22;20017;-96
2022/09/10 03:14:09;;;;;;;;;;;18.40;90.00;;;;;;6341450;22;20036;-95
2022/09/10 03:16:35;;;;;;;;;;;18.40;90.20;;;;;;6341550;22;19964;-96
2022/09/10 03:19:01;;;;;;;;;;;18.50;90.30;;;;;;6341709;22;19931;-96
2022/09/10 03:21:27;;;;;;;;;;;18.70;90.30;;;;;;6341568;22;19931;-96
2022/09/10 03:23:54;;;;;;;;;;;18.80;90.00;;;;;;6341484;22;19951;-96
2022/09/10 03:26:21;;;;;;;;;;;18.80;89.70;;;;;;6313044;22;19945;-96
2022/09/10 03:28:47;;;;;;;;;;;18.80;89.60;;;;;;6341054;22;19936;-96
2022/09/10 03:31:13;;;;;;;;;;;18.80;89.70;;;;;;6340596;22;19980;-96
2022/09/10 03:33:42;;;;;;;;;;;18.70;89.90;;;;;;6340983;22;20003;-96
2022/09/10 03:36:08;;;;;;;;;;;18.70;89.90;;;;;;6341017;22;19949;-96
2022/09/10 03:38:34;;;;;;;;;;;18.70;89.80;;;;;;6341033;22;19954;-96
2022/09/10 03:41:01;;;;;;;;;;;18.70;89.80;;;;;;6340637;22;19975;-96
2022/09/10 03:43:27;;;;;;;;;;;18.60;89.80;;;;;;6313821;22;19932;-96
2022/09/10 03:45:52;;;;;;;;;;;18.60;89.80;;;;;;6340463;22;19943;-95
2022/09/10 03:48:18;;;;;;;;;;;18.50;89.80;;;;;;6340791;22;19936;-96
2022/09/10 03:50:44;;;;;;;;;;;18.50;89.80;;;;;;6340847;22;20352;-96
2022/09/10 03:53:10;;;;;;;;;;;18.40;89.80;;;;;;6340628;22;19988;-96
2022/09/10 03:55:36;;;;;;;;;;;18.40;89.80;;;;;;6340365;22;19936;-96
2022/09/10 03:58:02;;;;;;;;;;;18.30;89.80;;;;;;6340681;22;19956;-96
2022/09/10 04:00:27;;;;;;;;;;;18.30;89.70;;;;;;6340663;22;19935;-96
2022/09/10 04:02:53;;;;;;;;;;;18.30;89.60;;;;;;6340777;22;19939;-96
2022/09/10 04:05:19;;;;;;;;;;;18.30;89.50;;;;;;6340674;22;19939;-96
2022/09/10 04:07:45;;;;;;;;;;;18.10;89.40;;;;;;6340959;22;20320;-96
2022/09/10 04:10:12;;;;;;;;;;;18.10;89.50;;;;;;6312655;22;19942;-96
2022/09/10 04:12:38;;;;;;;;;;;18.00;89.60;;;;;;6340447;22;19929;-95
2022/09/10 04:15:04;;;;;;;;;;;18.00;89.60;;;;;;6312292;22;19994;-96
2022/09/10 04:17:29;;;;;;;;;;;18.00;89.70;;;;;;6340076;22;19936;-96
2022/09/10 04:19:55;;;;;;;;;;;18.00;89.40;;;;;;6340521;22;20016;-96
2022/09/10 04:22:21;;;;;;;;;;;17.90;89.40;;;;;;6340936;22;19997;-96
2022/09/10 04:24:47;;;;;;;;;;;17.90;89.50;;;;;;6340483;22;19937;-96
2022/09/10 04:27:12;;;;;;;;;;;17.90;89.20;;;;;;6340465;22;19933;-95
2022/09/10 04:29:38;;;;;;;;;;;17.90;89.10;;;;;;6312406;22;19934;-96
2022/09/10 04:32:04;;;;;;;;;;;17.90;89.00;;;;;;6340277;22;19936;-96
2022/09/10 04:34:29;;;;;;;;;;;17.90;89.00;;;;;;6313469;22;20333;-96
2022/09/10 04:36:55;;;;;;;;;;;17.80;88.90;;;;;;6340507;22;19946;-96
2022/09/10 04:39:21;;;;;;;;;;;17.60;88.80;;;;;;6340097;22;19983;-96
2022/09/10 04:41:46;;;;;;;;;;;17.60;89.10;;;;;;6312465;22;20018;-96
2022/09/10 04:44:12;;;;;;;;;;;17.40;89.20;;;;;;6340639;22;19942;-96
2022/09/10 04:46:38;;;;;;;;;;;17.40;89.50;;;;;;6340276;22;19959;-96
2022/09/10 04:49:04;;;;;;;;;;;17.30;89.60;;;;;;6340387;22;19937;-96
2022/09/10 04:51:30;;;;;;;;;;;17.30;90.00;;;;;;6340194;22;20396;-96
2022/09/10 04:53:55;;;;;;;;;;;17.30;90.30;;;;;;6340579;22;20032;-96
2022/09/10 04:56:21;;;;;;;;;;;17.40;90.20;;;;;;6340118;22;19930;-95
2022/09/10 04:58:47;;;;;;;;;;;17.40;90.20;;;;;;6340354;22;19939;-96
2022/09/10 05:01:13;;;;;;;;;;;17.40;90.30;;;;;;6311899;22;20352;-96
2022/09/10 05:03:38;;;;;;;;;;;17.50;90.30;;;;;;6310363;22;19961;-96
2022/09/10 05:06:04;;;;;;;;;;;17.50;90.20;;;;;;6339296;22;19998;-96
2022/09/10 05:08:30;;;;;;;;;;;17.60;90.10;;;;;;6338045;22;20416;-96
2022/09/10 05:10:55;;;;;;;;;;;17.60;89.80;;;;;;6339990;22;19940;-96
2022/09/10 05:13:21;;;;;;;;;;;17.60;89.10;;;;;;6339707;22;19999;-96
2022/09/10 05:15:48;;;;;;;;;;;17.70;88.30;;;;;;6339683;22;19986;-96
2022/09/10 05:18:15;;;;;;;;;;;17.80;87.60;;;;;;6312380;22;20404;-96
2022/09/10 05:20:43;;;;;;;;;;;17.70;86.20;;;;;;6340406;22;19945;-96
2022/09/10 05:23:09;;;;;;;;;;;17.80;84.80;;;;;;6339639;22;19990;-96
2022/09/10 05:25:35;;;;;;;;;;;17.90;84.10;;;;;;6313071;22;20352;-96
2022/09/10 05:28:00;;;;;;;;;;;18.00;83.70;;;;;;6339472;22;19936;-96
2022/09/10 05:30:31;;;;;;;;;;;18.10;83.40;;;;;;6340377;22;20339;-96
2022/09/10 05:32:58;;;;;;;;;;;18.10;83.00;;;;;;6339520;22;20256;-95
2022/09/10 05:35:23;;;;;;;;;;;18.10;82.60;;;;;;6340403;22;20359;-96
2022/09/10 05:37:49;;;;;;;;;;;18.10;82.70;;;;;;6313020;22;19939;-96
2022/09/10 05:40:15;;;;;;;;;;;18.10;82.80;;;;;;6311732;22;19982;-96
2022/09/10 05:42:41;;;;;;;;;;;18.10;83.00;;;;;;6340463;22;20410;-96
2022/09/10 05:45:06;;;;;;;;;;;18.10;83.30;;;;;;6339652;22;19932;-95
2022/09/10 05:47:33;;;;;;;;;;;18.10;83.70;;;;;;6339308;22;19991;-96
2022/09/10 05:49:58;;;;;;;;;;;18.10;84.20;;;;;;6339642;22;19939;-96
2022/09/10 05:52:25;;;;;;;;;;;18.10;84.60;;;;;;6339717;22;20371;-95
2022/09/10 05:54:50;;;;;;;;;;;18.20;84.90;;;;;;6311958;22;19936;-96
2022/09/10 05:57:16;;;;;;;;;;;18.20;85.20;;;;;;6313760;22;19951;-96
2022/09/10 05:59:42;;;;;;;;;;;18.20;85.30;;;;;;6341313;22;19932;-96
2022/09/10 06:02:14;;;;;;;;;;;18.30;85.60;;;;;;6341644;22;20378;-96
2022/09/10 06:04:39;;;;;;;;;;;18.30;85.70;;;;;;6341555;22;19944;-96
2022/09/10 06:07:07;;;;;;;;;;;18.30;85.70;;;;;;6314033;22;19937;-96
2022/09/10 06:09:33;;;;;;;;;;;18.40;85.70;;;;;;6313617;22;20029;-95
2022/09/10 06:11:58;;;;;;;;;;;18.50;85.50;;;;;;6341297;22;19933;-96
2022/09/10 06:14:24;;;;;;;;;;;18.60;85.40;;;;;;6340990;22;20331;-96
2022/09/10 06:16:52;;;;;;;;;;;18.70;85.20;;;;;;6341151;22;19945;-96
2022/09/10 06:19:18;;;;;;;;;;;18.70;85.10;;;;;;6341847;22;19937;-95
2022/09/10 06:21:45;;;;;;;;;;;18.70;85.50;;;;;;6341108;22;19989;-95
2022/09/10 06:24:11;;;;;;;;;;;18.80;85.40;;;;;;6341255;22;20017;-96
2022/09/10 06:26:37;;;;;;;;;;;18.90;84.30;;;;;;6341810;22;19967;-96
2022/09/10 06:29:03;;;;;;;;;;;19.10;83.40;;;;;;6314303;22;19938;-96
2022/09/10 06:31:29;;;;;;;;;;;19.20;83.30;;;;;;6341366;22;19940;-96
2022/09/10 06:33:55;;;;;;;;;;;19.30;83.10;;;;;;6341228;22;19941;-96
2022/09/10 06:36:20;;;;;;;;;;;19.40;82.40;;;;;;6341680;22;20291;-96
2022/09/10 06:38:48;;;;;;;;;;;19.50;82.20;;;;;;6341227;22;19950;-95
2022/09/10 06:41:15;;;;;;;;;;;19.50;82.20;;;;;;6340813;22;19978;-96
2022/09/10 06:43:41;;;;;;;;;;;19.60;81.60;;;;;;6341999;22;19941;-96
2022/09/10 06:46:08;;;;;;;;;;;19.60;81.00;;;;;;6340980;22;20308;-96
2022/09/10 06:48:38;;;;;;;;;;;19.60;81.00;;;;;;6341336;22;19932;-96
2022/09/10 06:51:03;;;;;;;;;;;19.60;81.60;;;;;;6341365;22;19944;-96
2022/09/10 06:53:32;;;;;;;;;;;19.70;81.60;;;;;;6340762;22;20045;-96
2022/09/10 06:55:58;;;;;;;;;;;19.80;80.90;;;;;;6340689;22;19973;-96
2022/09/10 06:58:24;;;;;;;;;;;19.90;79.60;;;;;;6340703;22;20327;-96
2022/09/10 07:00:50;;;;;;;;;;;19.90;79.50;;;;;;6341503;22;20016;-96
2022/09/10 07:03:16;;;;;;;;;;;19.90;79.40;;;;;;6334156;22;19944;-96
2022/09/10 07:05:43;;;;;;;;;;;20.00;78.40;;;;;;6340765;22;19932;-96
2022/09/10 07:08:11;;;;;;;;;;;20.10;76.80;;;;;;6313220;22;20187;-96
2022/09/10 07:10:37;;;;;;;;;;;20.10;75.80;;;;;;6313202;22;19947;-96
2022/09/10 07:13:02;;;;;;;;;;;20.20;74.60;;;;;;6340572;22;19955;-96
2022/09/10 07:15:28;;;;;;;;;;;20.20;74.10;;;;;;6313059;22;20378;-96
2022/09/10 07:17:54;;;;;;;;;;;20.30;72.90;;;;;;6313042;22;19934;-95
2022/09/10 07:20:24;;;;;;;;;;;20.30;71.80;;;;;;6341313;22;19935;-96
2022/09/10 07:22:50;;;;;;;;;;;20.40;70.70;;;;;;6340614;22;19990;-96
2022/09/10 07:25:16;;;;;;;;;;;20.50;71.00;;;;;;6340954;22;19963;-95
2022/09/10 07:27:41;;;;;;;;;;;20.50;70.70;;;;;;6340521;22;19961;-96
2022/09/10 07:30:07;;;;;;;;;;;20.60;69.40;;;;;;6340742;22;20405;-96
2022/09/10 07:32:33;;;;;;;;;;;20.80;69.90;;;;;;6313741;22;19934;-96
2022/09/10 07:34:59;;;;;;;;;;;20.80;68.20;;;;;;6340858;22;19945;-96
2022/09/10 07:37:25;;;;;;;;;;;21.00;68.70;;;;;;6340499;22;20263;-95
2022/09/10 07:39:50;;;;;;;;;;;21.10;68.20;;;;;;6340303;22;20046;-96
2022/09/10 07:42:16;;;;;;;;;;;21.20;67.60;;;;;;6341193;22;19948;-96
2022/09/10 07:44:42;;;;;;;;;;;21.30;68.00;;;;;;6340383;22;19933;-96
2022/09/10 07:47:07;;;;;;;;;;;21.30;66.70;;;;;;6340477;22;19937;-96
2022/09/10 07:49:33;;;;;;;;;;;21.30;66.90;;;;;;6312174;22;19938;-96
2022/09/10 07:51:59;;;;;;;;;;;21.50;66.50;;;;;;6338310;22;19991;-96
2022/09/10 07:54:24;;;;;;;;;;;21.40;64.90;;;;;;6340604;22;20377;-96
2022/09/10 07:56:50;;;;;;;;;;;21.40;66.20;;;;;;6310503;22;19942;-96
2022/09/10 07:59:15;;;;;;;;;;;21.50;66.80;;;;;;6313007;22;19938;-96
2022/09/10 08:01:41;;;;;;;;;;;21.60;66.10;;;;;;6340127;22;19984;-96
2022/09/10 08:04:07;;;;;;;;;;;21.70;65.50;;;;;;6340620;22;19998;-96
2022/09/10 08:06:33;;;;;;;;;;;21.80;64.50;;;;;;6340173;22;19937;-96
2022/09/10 08:08:58;;;;;;;;;;;21.80;65.60;;;;;;6340246;22;19934;-96
2022/09/10 08:11:24;;;;;;;;;;;21.80;64.00;;;;;;6339978;22;20364;-96
2022/09/10 08:13:51;;;;;;;;;;;21.90;63.70;;;;;;6340137;22;20385;-96
2022/09/10 08:16:18;;;;;;;;;;;22.00;64.30;;;;;;6340519;22;19939;-95
2022/09/10 08:18:44;;;;;;;;;;;22.10;61.40;;;;;;6340098;22;19935;-96
2022/09/10 08:21:09;;;;;;;;;;;22.20;60.30;;;;;;6340451;22;19943;-96
2022/09/10 08:23:36;;;;;;;;;;;22.30;60.60;;;;;;6340100;22;19938;-95
2022/09/10 08:26:04;;;;;;;;;;;22.30;60.60;;;;;;6340770;22;19959;-96
2022/09/10 08:28:29;;;;;;;;;;;22.40;61.80;;;;;;6340033;22;19937;-96
2022/09/10 08:31:00;;;;;;;;;;;22.40;61.80;;;;;;6340116;22;19955;-96
2022/09/10 08:33:30;;;;;;;;;;;22.50;60.50;;;;;;6340277;22;20033;-95
2022/09/10 08:35:57;;;;;;;;;;;22.70;58.60;;;;;;6339966;22;19937;-96
2022/09/10 08:38:23;;;;;;;;;;;22.80;57.80;;;;;;6339876;22;19964;-96
2022/09/10 08:40:49;;;;;;;;;;;22.80;57.10;;;;;;6339875;22;20069;-96
2022/09/10 08:43:15;;;;;;;;;;;22.80;56.80;;;;;;6340671;22;20253;-96
2022/09/10 08:45:42;;;;;;;;;;;23.00;57.40;;;;;;6339958;22;19937;-95
2022/09/10 08:48:16;;;;;;;;;;;23.10;56.60;;;;;;6339964;22;19945;-96
2022/09/10 08:50:48;;;;;;;;;;;23.30;57.10;;;;;;6340261;22;19960;-96
2022/09/10 08:53:28;;;;;;;;;;;23.40;56.70;;;;;;6339772;22;19986;-95
2022/09/10 08:55:56;;;;;;;;;;;23.40;55.50;;;;;;6339703;22;19933;-96
2022/09/10 08:58:42;;;;;;;;;;;23.40;55.40;;;;;;6340593;22;19996;-95
2022/09/10 09:01:11;;;;;;;;;;;23.40;54.10;;;;;;6338826;22;20279;-96
2022/09/10 09:03:43;;;;;;;;;;;23.50;54.50;;;;;;6340164;22;19937;-96
2022/09/10 09:06:30;;;;;;;;;;;23.60;54.50;;;;;;6339847;22;20460;-96
2022/09/10 09:08:57;;;;;;;;;;;23.60;54.50;;;;;;6340548;22;19934;-95
2022/09/10 09:11:22;;;;;;;;;;;23.70;55.40;;;;;;6339621;22;19932;-95
2022/09/10 09:13:48;;;;;;;;;;;23.70;56.00;;;;;;6339729;22;19991;-96
2022/09/10 09:16:19;;;;;;;;;;;23.80;55.80;;;;;;6340080;22;19937;-96
2022/09/10 09:19:04;;;;;;;;;;;23.80;56.20;;;;;;6339722;22;19938;-96
2022/09/10 09:21:47;;;;;;;;;;;23.90;57.20;;;;;;6312010;22;19945;-96
2022/09/10 09:24:18;;;;;;;;;;;24.00;57.30;;;;;;6340011;22;19936;-95
2022/09/10 09:26:45;;;;;;;;;;;24.10;54.90;;;;;;6339645;22;19937;-96
2022/09/10 09:29:16;;;;;;;;;;;24.20;54.30;;;;;;6340230;22;19971;-95
2022/09/10 09:31:46;;;;;;;;;;;24.20;54.20;;;;;;6341702;22;19930;-96
2022/09/10 09:34:20;;;;;;;;;;;24.20;53.40;;;;;;6313936;22;19962;-95
2022/09/10 09:36:50;;;;;;;;;;;24.30;53.30;;;;;;6342335;22;19932;-95
2022/09/10 09:39:22;;;;;;;;;;;24.30;54.30;;;;;;6340012;22;19973;-96
2022/09/10 09:42:08;;;;;;;;;;;24.30;56.00;;;;;;6339698;22;20341;-96
2022/09/10 09:44:45;;;;;;;;;;;24.40;55.10;;;;;;6339339;22;19934;-96
2022/09/10 09:47:10;;;;;;;;;;;24.50;54.20;;;;;;6342033;22;19936;-96
2022/09/10 09:49:36;;;;;;;;;;;24.60;53.40;;;;;;6340078;22;20246;-95
2022/09/10 09:52:13;;;;;;;;;;;24.70;53.50;;;;;;6339834;22;19966;-95
2022/09/10 09:54:43;;;;;;;;;;;24.70;54.60;;;;;;6313303;22;20290;-96
2022/09/10 09:57:19;;;;;;;;;;;24.90;55.50;;;;;;6341032;22;19985;-96
2022/09/10 09:59:45;;;;;;;;;;;24.90;52.70;;;;;;6339134;22;19932;-95
2022/09/10 10:02:16;;;;;;;;;;;25.00;53.10;;;;;;6341559;22;19980;-95
2022/09/10 10:04:53;;;;;;;;;;;25.10;52.10;;;;;;6339142;22;19935;-95
2022/09/10 10:07:26;;;;;;;;;;;25.00;51.50;;;;;;6340513;22;20009;-95
2022/09/10 10:09:52;;;;;;;;;;;25.00;52.80;;;;;;6312195;22;19943;-96
2022/09/10 10:12:18;;;;;;;;;;;25.20;54.70;;;;;;6340277;22;19937;-96
2022/09/10 10:14:44;;;;;;;;;;;25.30;53.10;;;;;;6312476;22;19960;-96
2022/09/10 10:17:21;;;;;;;;;;;25.30;53.60;;;;;;6341926;22;19944;-96
2022/09/10 10:19:58;;;;;;;;;;;25.50;55.80;;;;;;6341535;22;19934;-96
2022/09/10 10:22:24;;;;;;;;;;;25.60;53.10;;;;;;6313571;22;19942;-96
2022/09/10 10:24:51;;;;;;;;;;;25.60;52.30;;;;;;6341825;22;19940;-96
2022/09/10 10:27:31;;;;;;;;;;;25.40;52.60;;;;;;6341215;22;20347;-95
2022/09/10 10:30:05;;;;;;;;;;;25.40;51.80;;;;;;6341417;22;19934;-96
2022/09/10 10:32:32;;;;;;;;;;;25.50;53.10;;;;;;6340984;22;19933;-95
2022/09/10 10:35:10;;;;;;;;;;;25.70;53.20;;;;;;6341738;22;19961;-95
2022/09/10 10:37:46;;;;;;;;;;;25.70;52.60;;;;;;6313531;22;19940;-96
2022/09/10 10:40:18;;;;;;;;;;;25.80;54.70;;;;;;6340824;22;20439;-96
2022/09/10 10:43:02;;;;;;;;;;;25.90;53.20;;;;;;6341326;22;19938;-96
2022/09/10 10:45:27;;;;;;;;;;;26.10;55.90;;;;;;6341242;22;20338;-96
2022/09/10 10:47:57;;;;;;;;;;;26.30;51.20;;;;;;6341669;22;19982;-95
2022/09/10 10:50:24;;;;;;;;;;;26.30;51.00;;;;;;6340960;22;19987;-95
2022/09/10 10:52:56;;;;;;;;;;;26.30;49.70;;;;;;6313267;22;20386;-96
2022/09/10 10:55:22;;;;;;;;;;;26.30;49.40;;;;;;6341599;22;19936;-96
2022/09/10 10:58:11;;;;;;;;;;;26.30;48.70;;;;;;6340878;22;19936;-96
2022/09/10 11:00:50;;;;;;;;;;;26.40;51.00;;;;;;6340917;22;19935;-96
2022/09/10 11:03:21;;;;;;;;;;;26.60;51.30;;;;;;6340862;22;19969;-96
2022/09/10 11:05:48;;;;;;;;;;;26.90;52.70;;;;;;6341207;22;19937;-96
2022/09/10 11:08:20;;;;;;;;;;;27.10;49.60;;;;;;6341108;22;20338;-96
2022/09/10 11:10:55;;;;;;;;;;;27.20;47.40;;;;;;6341394;22;19983;-96
2022/09/10 11:13:26;;;;;;;;;;;27.30;46.80;;;;;;6340429;22;20396;-95
2022/09/10 11:16:00;;;;;;;;;;;27.40;46.00;;;;;;6340295;22;20011;-96
2022/09/10 11:18:32;;;;;;;;;;;27.60;47.00;;;;;;6314457;22;19937;-95
2022/09/10 11:21:01;;;;;;;;;;;27.70;45.20;;;;;;6313336;22;19935;-96
2022/09/10 11:23:29;;;;;;;;;;;27.90;45.90;;;;;;6340974;22;19931;-96
2022/09/10 11:26:01;;;;;;;;;;;28.10;45.10;;;;;;6340898;22;19966;-96
2022/09/10 11:28:33;;;;;;;;;;;28.30;43.90;;;;;;6341270;22;19965;-96
2022/09/10 11:31:02;;;;;;;;;;;28.30;43.00;;;;;;6312957;22;19938;-96
2022/09/10 11:33:32;;;;;;;;;;;28.30;43.20;;;;;;6312766;22;19953;-96
2022/09/10 11:36:04;;;;;;;;;;;28.20;43.10;;;;;;6312898;22;20346;-96
2022/09/10 11:38:35;;;;;;;;;;;28.30;44.00;;;;;;6341127;22;19952;-96
2022/09/10 11:41:09;;;;;;;;;;;28.60;42.40;;;;;;6340221;22;20322;-96
2022/09/10 11:43:36;;;;;;;;;;;28.80;40.10;;;;;;6340773;22;19932;-96
2022/09/10 11:46:05;;;;;;;;;;;28.90;41.80;;;;;;6312731;22;20013;-96
2022/09/10 11:48:31;;;;;;;;;;;29.10;41.80;;;;;;6340769;22;19929;-96
2022/09/10 11:51:00;;;;;;;;;;;29.20;39.50;;;;;;6312653;22;20006;-95
2022/09/10 11:53:26;;;;;;;;;;;29.20;40.60;;;;;;6340057;22;20036;-96
2022/09/10 11:56:11;;;;;;;;;;;29.20;39.70;;;;;;6340317;22;19935;-96
2022/09/10 11:58:36;;;;;;;;;;;29.40;40.40;;;;;;6341045;22;19932;-95
2022/09/10 12:01:21;;;;;;;;;;;29.30;39.00;;;;;;6340318;22;20266;-96
2022/09/10 12:03:49;;;;;;;;;;;29.50;38.80;;;;;;6340751;22;19933;-96
2022/09/10 12:06:29;;;;;;;;;;;29.80;39.50;;;;;;6340535;22;19936;-96
2022/09/10 12:09:13;;;;;;;;;;;29.70;40.70;;;;;;6340998;22;20400;-95
2022/09/10 12:11:38;;;;;;;;;;;29.50;39.30;;;;;;6312861;22;19946;-96
2022/09/10 12:14:12;;;;;;;;;;;29.40;40.50;;;;;;6340711;22;20281;-96
2022/09/10 12:16:41;;;;;;;;;;;29.70;39.80;;;;;;6341872;22;19937;-96
2022/09/10 12:19:15;;;;;;;;;;;30.20;40.30;;;;;;6342457;22;19938;-96
2022/09/10 12:21:46;;;;;;;;;;;30.80;40.10;;;;;;6342186;22;19961;-96
2022/09/10 12:24:26;;;;;;;;;;;30.70;36.50;;;;;;6341674;22;20416;-96
2022/09/10 12:26:53;;;;;;;;;;;30.50;38.30;;;;;;6341974;22;19932;-96
2022/09/10 12:29:29;;;;;;;;;;;31.20;37.30;;;;;;6342393;22;20365;-96
2022/09/10 12:32:06;;;;;;;;;;;32.20;35.50;;;;;;6342933;22;19928;-96
2022/09/10 12:34:32;;;;;;;;;;;33.10;33.50;;;;;;6343114;22;20033;-96
2022/09/10 12:36:58;;;;;;;;;;;34.00;33.60;;;;;;6343570;22;20357;-96
2022/09/10 12:39:25;;;;;;;;;;;33.80;31.90;;;;;;6342721;22;19968;-96
2022/09/10 12:41:51;;;;;;;;;;;35.00;31.50;;;;;;6341958;22;20404;-96
2022/09/10 12:44:36;;;;;;;;;;;36.30;28.90;;;;;;6340825;22;19938;-96
2022/09/10 12:47:14;;;;;;;;;;;36.90;27.10;;;;;;6340401;22;19931;-96
2022/09/10 12:50:05;;;;;;;;;;;37.50;26.40;;;;;;6340824;22;19956;-96
2022/09/10 12:52:34;;;;;;;;;;;37.70;27.80;;;;;;6332793;22;19990;-96
2022/09/10 12:55:05;;;;;;;;;;;38.10;26.70;;;;;;6341099;22;19954;-96
2022/09/10 12:57:49;;;;;;;;;;;38.40;26.60;;;;;;6312566;22;19935;-96
2022/09/10 13:00:38;;;;;;;;;;;39.00;25.10;;;;;;6340114;22;19937;-96
2022/09/10 13:03:03;;;;;;;;;;;40.20;23.50;;;;;;6340682;22;19953;-96
2022/09/10 13:05:50;;;;;;;;;;;40.60;24.20;;;;;;6340464;22;20335;-96
2022/09/10 13:08:27;;;;;;;;;;;39.80;25.00;;;;;;6311909;22;19941;-96
2022/09/10 13:10:56;;;;;;;;;;;39.50;23.70;;;;;;6340507;22;20003;-96
2022/09/10 13:13:31;;;;;;;;;;;39.10;25.50;;;;;;6339614;22;20026;-96
2022/09/10 13:15:57;;;;;;;;;;;40.30;23.20;;;;;;6312046;22;20274;-96
2022/09/10 13:18:25;;;;;;;;;;;40.00;24.40;;;;;;6340070;22;19938;-96
2022/09/10 13:20:51;;;;;;;;;;;38.90;25.20;;;;;;6312747;22;19964;-96
2022/09/10 13:23:17;;;;;;;;;;;37.80;25.80;;;;;;6311967;22;19940;-96
2022/09/10 13:25:44;;;;;;;;;;;37.60;26.80;;;;;;6312721;22;19929;-96
2022/09/10 13:28:28;;;;;;;;;;;37.20;26.50;;;;;;6339671;22;19941;-96
2022/09/10 13:31:17;;;;;;;;;;;36.70;28.10;;;;;;6340344;22;19964;-96
2022/09/10 13:33:48;;;;;;;;;;;36.30;28.50;;;;;;6311818;22;19962;-95
2022/09/10 13:36:17;;;;;;;;;;;34.10;31.00;;;;;;6311851;22;20349;-95
2022/09/10 13:39:01;;;;;;;;;;;33.70;31.30;;;;;;6312755;22;19989;-96
2022/09/10 13:41:28;;;;;;;;;;;33.60;31.70;;;;;;6339690;22;19957;-96
2022/09/10 13:44:06;;;;;;;;;;;34.30;31.20;;;;;;6312702;22;19983;-96
2022/09/10 13:46:45;;;;;;;;;;;35.70;29.10;;;;;;6311328;22;21986;-96
2022/09/10 13:49:29;;;;;;;;;;;36.80;27.40;;;;;;6340642;22;19938;-96
2022/09/10 13:51:56;;;;;;;;;;;37.70;26.00;;;;;;6339213;22;19941;-96
2022/09/10 13:54:35;;;;;;;;;;;36.70;27.40;;;;;;6311797;22;19960;-96
2022/09/10 13:57:21;;;;;;;;;;;36.00;28.20;;;;;;6339913;22;19934;-95
2022/09/10 13:59:48;;;;;;;;;;;35.30;29.30;;;;;;6312718;22;20024;-96
2022/09/10 14:02:15;;;;;;;;;;;34.80;29.10;;;;;;6311814;22;19964;-96
2022/09/10 14:04:40;;;;;;;;;;;34.00;30.00;;;;;;6339804;22;19939;-96
2022/09/10 14:07:14;;;;;;;;;;;34.20;30.70;;;;;;6339462;22;19933;-96
2022/09/10 14:09:55;;;;;;;;;;;35.00;29.70;;;;;;6340177;22;19962;-96
2022/09/10 14:12:24;;;;;;;;;;;34.60;29.40;;;;;;6339848;22;20371;-95
2022/09/10 14:14:53;;;;;;;;;;;34.30;30.40;;;;;;6311514;22;20308;-95
2022/09/10 14:17:21;;;;;;;;;;;34.70;28.80;;;;;;6313046;22;19965;-96
2022/09/10 14:19:50;;;;;;;;;;;35.20;28.70;;;;;;6341576;22;20002;-96
2022/09/10 14:22:20;;;;;;;;;;;35.80;27.40;;;;;;6341563;22;19936;-96
2022/09/10 14:24:54;;;;;;;;;;;36.10;28.20;;;;;;6314999;22;19940;-96
2022/09/10 14:27:24;;;;;;;;;;;37.00;27.50;;;;;;6314223;22;19941;-96